Pula, Croatia

9:57 AM CEST on July 26, 2016 (GMT +0200)
IISTRIAF2 | | Change Station

Elev 98 ft 44.93 °N, 13.81 °E | Updated 2 minutes ago

Clear
Clear
81.5 °F
Feels Like 87 °F
N
0.0
Wind Variable Wind from North
Gusts 0.0 mph

Today
High -- | Low -- °F
--% Chance of Precip.
Yesterday
High -- | Low -- °F
Precip. -- in
Pressure 29.95 in
Visibility -9999.0 miles
Clouds
Heat Index 87 °F
Dew Point 73 °F
Humidity 76%
Rainfall 0.08 in
Snow Depth Not available.
5:43 AM 8:37 PM
Waning Gibbous, 57% visible
METAR LDPL 260730Z 05011KT 020V090 CAVOK 29/15 Q1014 NOSIG
Pressure 29.95 in
Visibility -9999.0 miles
Clouds
Heat Index 87 °F
Dew Point 73 °F
Humidity 76%
Rainfall 0.08 in
Snow Depth Not available.
5:43 AM 8:37 PM
Waning Gibbous, 57% visible
METAR LDPL 260730Z 05011KT 020V090 CAVOK 29/15 Q1014 NOSIG

10-Day Weather Forecast

×

Almanac

Astronomy

Jul. 26, 2016 Rise Set
Actual Time
Civil Twilight
Nautical Twilight
Astronomical Twilight
Moon
Length of Visible Light
Length of Day
Tomorrow will be .
, % of the Moon is Illuminated

Today's Extremes

Country Highs Country Lows

Community

WunderPhotos

Upload Photos

1,927,551 photos uploaded!

WunderBlog® & News

Nearby

Air Quality

  Air Quality AQ Index Pollutant
Not available.

Snow Depth

Station Depth Elevation

Earthquake Activity

City Distance Mag. Time & Date
Minimum magnitude displayed is 2.5.

Coastal Water Temperatures

Place Temperature

Stations

Nearby Weather Stations

Station Location Temp. Windchill Dew Point Humidity Wind Precip. Elev Updated Type